메인 페이지
METAR-TAF:

METAR-TAF

공항 :

앨버커키, 뉴멕시코, 미국

위도: 35-02-30N, 경도: 106-36-53W, 고도: 1631m

현재 날씨관측

예보는 29분 전, 10:52시(UTC)에 발표되었습니다.
북북동3kt
온도 21°C
습도 49%
기압 1027 hPa
시정: 16.1km
고도 16000ft 상공 구름 많음

METAR: KABQ 241052Z 02003KT 10SM BKN160 21/10 A3034 RMK AO2 SLP183 T02110100

시각: 05:21 (11:21 UTC)

예보

예보는 5 시간 51분 전, 05:30시(UTC)에 발표되었습니다.
예보 대상 시간: 24일 06시부터 25일 06시까지 (UTC)
여러 방향의 바람 6kt
시정: 10km
맑음
24일 1900시부터 (UTC)
남서7kt
시정: 10km
고도 10000ft 상공 구름 조금
고도 15000ft 상공 구름 보통
24일 2300시부터 (UTC)
20kt, 순간 최대 풍속 30kt
시정: 10km
고도 10000ft 상공 구름 많음
고도 15000ft 상공 흐림
시계 내 소나기
25일 0200시부터 (UTC)
11kt
시정: 10km
고도 10000ft 상공 구름 많음

TAF: KABQ 240530Z 2406/2506 VRB06KT P6SM SKC FM241900 23007KT P6SM FEW100 SCT150 FM242300 09020G30KT P6SM VCSH BKN100 OVC150 FM250200 10011KT P6SM BKN100

4,000개 이상의 공항 관측 자료 및 예보 (METAR 및 TAF 보고).

지도상에서 검색 가능한 기상관측소가 노란 점과 빨간 점으로 표시되어 있습니다.

기상관측소 명을 보려면 표시 위로 마우스를 이동하세요.

날씨 관측과 예보를 보려면 클릭하세요.

지도 변경 : 확대하려면 엑스 표시가 있는 녹색 버튼, 축소하려면 빼기 표시가 있는 녹색 버튼, 다음 페이지의 지도를 보려면 녹색 화살표를 클릭하세요.


METAR-TAF: